sensor_id;sensor_type;location;lat;lon;timestamp;P1;durP1;ratioP1;P2;durP2;ratioP2
56770;SDS011;42641;59.794;17.616;2023-12-22T00:00:46;1.97;;;1.40;;
56770;SDS011;42641;59.794;17.616;2023-12-22T00:03:13;2.73;;;1.70;;
56770;SDS011;42641;59.794;17.616;2023-12-22T00:05:41;1.73;;;1.60;;
56770;SDS011;42641;59.794;17.616;2023-12-22T00:08:07;1.77;;;1.47;;
56770;SDS011;42641;59.794;17.616;2023-12-22T00:10:34;5.13;;;1.57;;
56770;SDS011;42641;59.794;17.616;2023-12-22T00:13:00;2.53;;;1.50;;
56770;SDS011;42641;59.794;17.616;2023-12-22T00:15:26;2.03;;;1.50;;
56770;SDS011;42641;59.794;17.616;2023-12-22T00:17:53;3.80;;;1.40;;
56770;SDS011;42641;59.794;17.616;2023-12-22T00:20:20;1.67;;;1.40;;
56770;SDS011;42641;59.794;17.616;2023-12-22T00:22:46;2.03;;;1.27;;
56770;SDS011;42641;59.794;17.616;2023-12-22T00:25:12;1.80;;;1.30;;
56770;SDS011;42641;59.794;17.616;2023-12-22T00:27:39;2.03;;;1.20;;
56770;SDS011;42641;59.794;17.616;2023-12-22T00:30:05;2.20;;;1.50;;
56770;SDS011;42641;59.794;17.616;2023-12-22T00:32:32;2.27;;;1.40;;
56770;SDS011;42641;59.794;17.616;2023-12-22T00:34:59;2.03;;;1.30;;
56770;SDS011;42641;59.794;17.616;2023-12-22T00:37:25;2.60;;;1.43;;
56770;SDS011;42641;59.794;17.616;2023-12-22T00:39:51;4.63;;;1.37;;
56770;SDS011;42641;59.794;17.616;2023-12-22T00:42:18;2.30;;;1.50;;
56770;SDS011;42641;59.794;17.616;2023-12-22T00:44:44;4.03;;;1.30;;
56770;SDS011;42641;59.794;17.616;2023-12-22T00:47:11;1.40;;;1.30;;
56770;SDS011;42641;59.794;17.616;2023-12-22T00:49:38;2.30;;;1.40;;
56770;SDS011;42641;59.794;17.616;2023-12-22T00:52:04;2.10;;;1.23;;
56770;SDS011;42641;59.794;17.616;2023-12-22T00:54:31;2.37;;;1.37;;
56770;SDS011;42641;59.794;17.616;2023-12-22T00:56:57;1.70;;;1.30;;
56770;SDS011;42641;59.794;17.616;2023-12-22T00:59:24;2.03;;;1.10;;
56770;SDS011;42641;59.794;17.616;2023-12-22T01:01:50;1.10;;;0.90;;
56770;SDS011;42641;59.794;17.616;2023-12-22T01:04:17;1.90;;;1.30;;
56770;SDS011;42641;59.794;17.616;2023-12-22T01:06:43;1.77;;;1.40;;
56770;SDS011;42641;59.794;17.616;2023-12-22T01:09:10;1.20;;;1.07;;
56770;SDS011;42641;59.794;17.616;2023-12-22T01:11:36;1.67;;;1.23;;
56770;SDS011;42641;59.794;17.616;2023-12-22T01:14:02;1.53;;;1.30;;
56770;SDS011;42641;59.794;17.616;2023-12-22T01:16:29;1.30;;;1.20;;
56770;SDS011;42641;59.794;17.616;2023-12-22T01:18:55;1.77;;;1.20;;
56770;SDS011;42641;59.794;17.616;2023-12-22T01:21:22;1.37;;;1.10;;
56770;SDS011;42641;59.794;17.616;2023-12-22T01:23:48;1.40;;;1.30;;
56770;SDS011;42641;59.794;17.616;2023-12-22T01:26:14;1.53;;;1.30;;
56770;SDS011;42641;59.794;17.616;2023-12-22T01:28:41;2.10;;;1.30;;
56770;SDS011;42641;59.794;17.616;2023-12-22T01:31:07;1.87;;;1.47;;
56770;SDS011;42641;59.794;17.616;2023-12-22T01:33:34;1.73;;;1.53;;
56770;SDS011;42641;59.794;17.616;2023-12-22T01:36:00;1.80;;;1.40;;
56770;SDS011;42641;59.794;17.616;2023-12-22T01:38:26;1.43;;;1.20;;
56770;SDS011;42641;59.794;17.616;2023-12-22T01:40:53;1.77;;;1.50;;
56770;SDS011;42641;59.794;17.616;2023-12-22T01:43:19;2.03;;;1.50;;
56770;SDS011;42641;59.794;17.616;2023-12-22T01:45:48;2.53;;;1.40;;
56770;SDS011;42641;59.794;17.616;2023-12-22T01:48:15;1.97;;;1.40;;
56770;SDS011;42641;59.794;17.616;2023-12-22T01:50:42;1.87;;;1.20;;
56770;SDS011;42641;59.794;17.616;2023-12-22T01:53:10;2.63;;;1.40;;
56770;SDS011;42641;59.794;17.616;2023-12-22T01:55:36;1.47;;;1.10;;
56770;SDS011;42641;59.794;17.616;2023-12-22T01:58:03;1.77;;;1.50;;
56770;SDS011;42641;59.794;17.616;2023-12-22T02:00:30;3.07;;;1.63;;
56770;SDS011;42641;59.794;17.616;2023-12-22T02:02:56;2.50;;;1.53;;
56770;SDS011;42641;59.794;17.616;2023-12-22T02:05:23;1.77;;;1.60;;
56770;SDS011;42641;59.794;17.616;2023-12-22T02:07:50;2.07;;;1.80;;
56770;SDS011;42641;59.794;17.616;2023-12-22T02:10:16;1.77;;;1.60;;
56770;SDS011;42641;59.794;17.616;2023-12-22T02:12:42;3.17;;;2.10;;
56770;SDS011;42641;59.794;17.616;2023-12-22T02:15:09;3.23;;;1.90;;
56770;SDS011;42641;59.794;17.616;2023-12-22T02:17:39;3.43;;;2.27;;
56770;SDS011;42641;59.794;17.616;2023-12-22T02:20:09;2.73;;;2.10;;
56770;SDS011;42641;59.794;17.616;2023-12-22T02:22:35;3.70;;;2.20;;
56770;SDS011;42641;59.794;17.616;2023-12-22T02:25:02;4.77;;;2.33;;
56770;SDS011;42641;59.794;17.616;2023-12-22T02:27:38;3.80;;;2.60;;
56770;SDS011;42641;59.794;17.616;2023-12-22T02:30:09;4.53;;;2.17;;
56770;SDS011;42641;59.794;17.616;2023-12-22T02:32:44;3.20;;;2.33;;
56770;SDS011;42641;59.794;17.616;2023-12-22T02:35:17;4.37;;;2.43;;
56770;SDS011;42641;59.794;17.616;2023-12-22T02:37:49;4.47;;;2.77;;
56770;SDS011;42641;59.794;17.616;2023-12-22T02:40:16;3.73;;;2.70;;
56770;SDS011;42641;59.794;17.616;2023-12-22T02:42:44;4.40;;;2.77;;
56770;SDS011;42641;59.794;17.616;2023-12-22T02:45:15;4.03;;;2.47;;
56770;SDS011;42641;59.794;17.616;2023-12-22T02:47:42;4.47;;;2.83;;
56770;SDS011;42641;59.794;17.616;2023-12-22T02:50:09;3.90;;;2.73;;
56770;SDS011;42641;59.794;17.616;2023-12-22T02:52:37;4.77;;;3.23;;
56770;SDS011;42641;59.794;17.616;2023-12-22T02:55:04;3.73;;;2.80;;
56770;SDS011;42641;59.794;17.616;2023-12-22T02:57:31;5.17;;;2.73;;
56770;SDS011;42641;59.794;17.616;2023-12-22T02:59:57;4.97;;;2.63;;
56770;SDS011;42641;59.794;17.616;2023-12-22T03:02:24;4.70;;;2.90;;
56770;SDS011;42641;59.794;17.616;2023-12-22T03:04:50;5.10;;;2.97;;
56770;SDS011;42641;59.794;17.616;2023-12-22T03:07:17;5.57;;;3.30;;
56770;SDS011;42641;59.794;17.616;2023-12-22T03:09:43;5.23;;;3.03;;
56770;SDS011;42641;59.794;17.616;2023-12-22T03:12:10;4.83;;;3.10;;
56770;SDS011;42641;59.794;17.616;2023-12-22T03:14:37;4.57;;;2.70;;
56770;SDS011;42641;59.794;17.616;2023-12-22T03:17:04;4.63;;;3.03;;
56770;SDS011;42641;59.794;17.616;2023-12-22T03:19:31;4.03;;;3.10;;
56770;SDS011;42641;59.794;17.616;2023-12-22T03:21:59;5.93;;;3.07;;
56770;SDS011;42641;59.794;17.616;2023-12-22T03:24:26;4.80;;;2.87;;
56770;SDS011;42641;59.794;17.616;2023-12-22T03:26:54;4.47;;;2.83;;
56770;SDS011;42641;59.794;17.616;2023-12-22T03:29:20;3.23;;;2.60;;
56770;SDS011;42641;59.794;17.616;2023-12-22T03:31:47;4.53;;;2.53;;
56770;SDS011;42641;59.794;17.616;2023-12-22T03:34:13;3.87;;;2.83;;
56770;SDS011;42641;59.794;17.616;2023-12-22T03:36:40;4.47;;;2.83;;
56770;SDS011;42641;59.794;17.616;2023-12-22T03:39:07;5.47;;;2.60;;
56770;SDS011;42641;59.794;17.616;2023-12-22T03:41:33;4.63;;;3.00;;
56770;SDS011;42641;59.794;17.616;2023-12-22T03:44:00;4.60;;;3.27;;
56770;SDS011;42641;59.794;17.616;2023-12-22T03:46:26;4.93;;;2.97;;
56770;SDS011;42641;59.794;17.616;2023-12-22T03:48:53;4.47;;;3.00;;
56770;SDS011;42641;59.794;17.616;2023-12-22T03:51:19;5.03;;;3.07;;
56770;SDS011;42641;59.794;17.616;2023-12-22T03:53:46;3.90;;;2.83;;
56770;SDS011;42641;59.794;17.616;2023-12-22T03:56:12;4.37;;;3.07;;
56770;SDS011;42641;59.794;17.616;2023-12-22T03:58:39;4.27;;;2.93;;
56770;SDS011;42641;59.794;17.616;2023-12-22T04:01:05;6.30;;;3.27;;
56770;SDS011;42641;59.794;17.616;2023-12-22T04:03:33;4.47;;;3.00;;
56770;SDS011;42641;59.794;17.616;2023-12-22T04:06:03;4.30;;;2.70;;
56770;SDS011;42641;59.794;17.616;2023-12-22T04:08:30;6.50;;;3.03;;
56770;SDS011;42641;59.794;17.616;2023-12-22T04:10:56;4.10;;;2.67;;
56770;SDS011;42641;59.794;17.616;2023-12-22T04:13:23;4.63;;;2.87;;
56770;SDS011;42641;59.794;17.616;2023-12-22T04:15:49;5.47;;;2.87;;
56770;SDS011;42641;59.794;17.616;2023-12-22T04:18:16;4.67;;;3.03;;
56770;SDS011;42641;59.794;17.616;2023-12-22T04:20:42;4.30;;;2.73;;
56770;SDS011;42641;59.794;17.616;2023-12-22T04:23:08;5.43;;;2.73;;
56770;SDS011;42641;59.794;17.616;2023-12-22T04:25:35;5.13;;;3.17;;
56770;SDS011;42641;59.794;17.616;2023-12-22T04:28:01;4.60;;;3.20;;
56770;SDS011;42641;59.794;17.616;2023-12-22T04:30:28;7.27;;;3.60;;
56770;SDS011;42641;59.794;17.616;2023-12-22T04:32:54;4.50;;;3.07;;
56770;SDS011;42641;59.794;17.616;2023-12-22T04:35:22;4.33;;;2.70;;
56770;SDS011;42641;59.794;17.616;2023-12-22T04:37:48;5.33;;;3.03;;
56770;SDS011;42641;59.794;17.616;2023-12-22T04:40:14;5.77;;;3.27;;
56770;SDS011;42641;59.794;17.616;2023-12-22T04:42:41;4.60;;;2.60;;
56770;SDS011;42641;59.794;17.616;2023-12-22T04:45:08;5.77;;;2.80;;
56770;SDS011;42641;59.794;17.616;2023-12-22T04:47:34;5.70;;;3.03;;
56770;SDS011;42641;59.794;17.616;2023-12-22T04:50:01;4.00;;;2.73;;
56770;SDS011;42641;59.794;17.616;2023-12-22T04:52:27;5.80;;;3.53;;
56770;SDS011;42641;59.794;17.616;2023-12-22T04:54:54;4.43;;;2.63;;
56770;SDS011;42641;59.794;17.616;2023-12-22T04:57:21;4.17;;;2.70;;
56770;SDS011;42641;59.794;17.616;2023-12-22T04:59:48;4.77;;;2.40;;
56770;SDS011;42641;59.794;17.616;2023-12-22T05:02:14;5.17;;;3.30;;
56770;SDS011;42641;59.794;17.616;2023-12-22T05:04:41;4.37;;;2.60;;
56770;SDS011;42641;59.794;17.616;2023-12-22T05:07:07;4.70;;;2.87;;
56770;SDS011;42641;59.794;17.616;2023-12-22T05:09:36;4.33;;;3.10;;
56770;SDS011;42641;59.794;17.616;2023-12-22T05:12:02;5.13;;;2.93;;
56770;SDS011;42641;59.794;17.616;2023-12-22T05:14:29;4.97;;;2.80;;
56770;SDS011;42641;59.794;17.616;2023-12-22T05:16:55;5.90;;;2.87;;
56770;SDS011;42641;59.794;17.616;2023-12-22T05:19:22;5.00;;;2.63;;
56770;SDS011;42641;59.794;17.616;2023-12-22T05:21:49;6.73;;;2.97;;
56770;SDS011;42641;59.794;17.616;2023-12-22T05:24:18;4.93;;;2.77;;
56770;SDS011;42641;59.794;17.616;2023-12-22T05:26:44;5.80;;;2.80;;
56770;SDS011;42641;59.794;17.616;2023-12-22T05:29:11;5.00;;;2.60;;
56770;SDS011;42641;59.794;17.616;2023-12-22T05:31:38;6.30;;;3.03;;
56770;SDS011;42641;59.794;17.616;2023-12-22T05:34:05;5.40;;;2.67;;
56770;SDS011;42641;59.794;17.616;2023-12-22T05:36:32;4.07;;;2.43;;
56770;SDS011;42641;59.794;17.616;2023-12-22T05:38:58;4.90;;;2.60;;
56770;SDS011;42641;59.794;17.616;2023-12-22T05:41:24;5.33;;;2.77;;
56770;SDS011;42641;59.794;17.616;2023-12-22T05:43:51;7.03;;;2.43;;
56770;SDS011;42641;59.794;17.616;2023-12-22T05:46:18;4.07;;;2.43;;
56770;SDS011;42641;59.794;17.616;2023-12-22T05:48:44;4.70;;;2.40;;
56770;SDS011;42641;59.794;17.616;2023-12-22T05:51:11;5.63;;;2.60;;
56770;SDS011;42641;59.794;17.616;2023-12-22T05:53:40;3.33;;;2.43;;
56770;SDS011;42641;59.794;17.616;2023-12-22T05:56:19;3.57;;;2.40;;
56770;SDS011;42641;59.794;17.616;2023-12-22T05:58:47;3.40;;;2.60;;
56770;SDS011;42641;59.794;17.616;2023-12-22T06:01:19;3.97;;;2.63;;
56770;SDS011;42641;59.794;17.616;2023-12-22T06:03:46;3.93;;;2.43;;
56770;SDS011;42641;59.794;17.616;2023-12-22T06:06:12;4.33;;;2.27;;
56770;SDS011;42641;59.794;17.616;2023-12-22T06:08:39;3.23;;;2.20;;
56770;SDS011;42641;59.794;17.616;2023-12-22T06:11:05;2.87;;;2.10;;
56770;SDS011;42641;59.794;17.616;2023-12-22T06:13:32;4.97;;;2.13;;
56770;SDS011;42641;59.794;17.616;2023-12-22T06:15:59;4.10;;;2.30;;
56770;SDS011;42641;59.794;17.616;2023-12-22T06:18:25;3.17;;;2.00;;
56770;SDS011;42641;59.794;17.616;2023-12-22T06:20:52;3.57;;;2.20;;
56770;SDS011;42641;59.794;17.616;2023-12-22T06:23:18;4.13;;;2.50;;
56770;SDS011;42641;59.794;17.616;2023-12-22T06:25:45;3.00;;;2.27;;
56770;SDS011;42641;59.794;17.616;2023-12-22T06:28:12;4.00;;;2.50;;
56770;SDS011;42641;59.794;17.616;2023-12-22T06:30:39;4.63;;;2.30;;
56770;SDS011;42641;59.794;17.616;2023-12-22T06:33:05;4.83;;;2.40;;
56770;SDS011;42641;59.794;17.616;2023-12-22T06:35:31;3.50;;;2.20;;
56770;SDS011;42641;59.794;17.616;2023-12-22T06:37:59;3.50;;;2.00;;
56770;SDS011;42641;59.794;17.616;2023-12-22T06:40:29;2.87;;;2.20;;
56770;SDS011;42641;59.794;17.616;2023-12-22T06:42:56;3.83;;;2.27;;
56770;SDS011;42641;59.794;17.616;2023-12-22T06:45:22;4.80;;;2.60;;
56770;SDS011;42641;59.794;17.616;2023-12-22T06:47:48;4.50;;;2.53;;
56770;SDS011;42641;59.794;17.616;2023-12-22T06:50:15;3.53;;;2.40;;
56770;SDS011;42641;59.794;17.616;2023-12-22T06:52:42;3.90;;;2.33;;
56770;SDS011;42641;59.794;17.616;2023-12-22T06:55:08;2.80;;;2.03;;
56770;SDS011;42641;59.794;17.616;2023-12-22T06:57:34;3.53;;;2.30;;
56770;SDS011;42641;59.794;17.616;2023-12-22T07:00:01;3.50;;;2.20;;
56770;SDS011;42641;59.794;17.616;2023-12-22T07:02:28;3.47;;;2.40;;
56770;SDS011;42641;59.794;17.616;2023-12-22T07:05:01;4.40;;;2.07;;
56770;SDS011;42641;59.794;17.616;2023-12-22T07:07:52;3.87;;;2.47;;
56770;SDS011;42641;59.794;17.616;2023-12-22T07:10:18;4.17;;;1.93;;
56770;SDS011;42641;59.794;17.616;2023-12-22T07:12:45;3.37;;;2.20;;
56770;SDS011;42641;59.794;17.616;2023-12-22T07:15:11;3.30;;;2.10;;
56770;SDS011;42641;59.794;17.616;2023-12-22T07:17:38;2.77;;;2.20;;
56770;SDS011;42641;59.794;17.616;2023-12-22T07:20:04;4.27;;;2.23;;
56770;SDS011;42641;59.794;17.616;2023-12-22T07:22:31;3.27;;;2.20;;
56770;SDS011;42641;59.794;17.616;2023-12-22T07:24:58;3.50;;;2.60;;
56770;SDS011;42641;59.794;17.616;2023-12-22T07:27:24;3.40;;;2.20;;
56770;SDS011;42641;59.794;17.616;2023-12-22T07:29:51;2.30;;;1.80;;
56770;SDS011;42641;59.794;17.616;2023-12-22T07:32:18;3.77;;;2.40;;
56770;SDS011;42641;59.794;17.616;2023-12-22T07:34:44;4.17;;;2.57;;
56770;SDS011;42641;59.794;17.616;2023-12-22T07:37:10;2.43;;;1.97;;
56770;SDS011;42641;59.794;17.616;2023-12-22T07:39:37;3.00;;;1.90;;
56770;SDS011;42641;59.794;17.616;2023-12-22T07:42:03;3.83;;;2.53;;
56770;SDS011;42641;59.794;17.616;2023-12-22T07:44:30;4.53;;;2.67;;
56770;SDS011;42641;59.794;17.616;2023-12-22T07:46:57;3.30;;;2.40;;
56770;SDS011;42641;59.794;17.616;2023-12-22T07:49:26;4.13;;;2.47;;
56770;SDS011;42641;59.794;17.616;2023-12-22T07:51:53;2.37;;;2.13;;
56770;SDS011;42641;59.794;17.616;2023-12-22T07:54:19;3.27;;;2.47;;
56770;SDS011;42641;59.794;17.616;2023-12-22T07:56:46;3.90;;;2.17;;
56770;SDS011;42641;59.794;17.616;2023-12-22T07:59:12;2.90;;;2.50;;
56770;SDS011;42641;59.794;17.616;2023-12-22T08:01:39;3.23;;;2.40;;
56770;SDS011;42641;59.794;17.616;2023-12-22T08:04:06;3.37;;;2.23;;
56770;SDS011;42641;59.794;17.616;2023-12-22T08:06:32;3.67;;;2.33;;
56770;SDS011;42641;59.794;17.616;2023-12-22T08:08:58;3.37;;;2.30;;
56770;SDS011;42641;59.794;17.616;2023-12-22T08:11:25;4.57;;;2.70;;
56770;SDS011;42641;59.794;17.616;2023-12-22T08:13:52;5.23;;;2.63;;
56770;SDS011;42641;59.794;17.616;2023-12-22T08:16:19;3.67;;;2.50;;
56770;SDS011;42641;59.794;17.616;2023-12-22T08:18:46;4.70;;;2.70;;
56770;SDS011;42641;59.794;17.616;2023-12-22T08:21:13;4.33;;;2.50;;
56770;SDS011;42641;59.794;17.616;2023-12-22T08:23:41;6.47;;;2.43;;
56770;SDS011;42641;59.794;17.616;2023-12-22T08:26:07;3.77;;;2.70;;
56770;SDS011;42641;59.794;17.616;2023-12-22T08:28:34;4.93;;;2.90;;
56770;SDS011;42641;59.794;17.616;2023-12-22T08:31:01;3.27;;;2.47;;
56770;SDS011;42641;59.794;17.616;2023-12-22T08:33:28;4.37;;;2.80;;
56770;SDS011;42641;59.794;17.616;2023-12-22T08:35:57;4.97;;;2.97;;
56770;SDS011;42641;59.794;17.616;2023-12-22T08:38:24;4.53;;;2.87;;
56770;SDS011;42641;59.794;17.616;2023-12-22T08:40:50;3.73;;;2.80;;
56770;SDS011;42641;59.794;17.616;2023-12-22T08:43:16;5.50;;;3.13;;
56770;SDS011;42641;59.794;17.616;2023-12-22T08:45:44;5.93;;;2.97;;
56770;SDS011;42641;59.794;17.616;2023-12-22T08:48:10;4.53;;;3.03;;
56770;SDS011;42641;59.794;17.616;2023-12-22T08:50:37;5.63;;;2.93;;
56770;SDS011;42641;59.794;17.616;2023-12-22T08:53:05;4.20;;;2.57;;
56770;SDS011;42641;59.794;17.616;2023-12-22T08:55:31;7.27;;;3.43;;
56770;SDS011;42641;59.794;17.616;2023-12-22T08:57:57;5.60;;;2.90;;
56770;SDS011;42641;59.794;17.616;2023-12-22T09:00:24;4.93;;;3.27;;
56770;SDS011;42641;59.794;17.616;2023-12-22T09:02:50;5.00;;;3.13;;
56770;SDS011;42641;59.794;17.616;2023-12-22T09:05:17;4.67;;;2.97;;
56770;SDS011;42641;59.794;17.616;2023-12-22T09:07:45;4.40;;;2.90;;
56770;SDS011;42641;59.794;17.616;2023-12-22T09:10:12;5.03;;;3.00;;
56770;SDS011;42641;59.794;17.616;2023-12-22T09:12:38;5.07;;;2.97;;
56770;SDS011;42641;59.794;17.616;2023-12-22T09:15:05;4.37;;;3.10;;
56770;SDS011;42641;59.794;17.616;2023-12-22T09:17:31;4.47;;;3.00;;
56770;SDS011;42641;59.794;17.616;2023-12-22T09:19:58;4.90;;;3.27;;
56770;SDS011;42641;59.794;17.616;2023-12-22T09:22:25;6.60;;;3.07;;
56770;SDS011;42641;59.794;17.616;2023-12-22T09:24:51;4.37;;;2.93;;
56770;SDS011;42641;59.794;17.616;2023-12-22T09:27:17;6.73;;;3.00;;
56770;SDS011;42641;59.794;17.616;2023-12-22T09:29:45;9.17;;;3.10;;
56770;SDS011;42641;59.794;17.616;2023-12-22T09:32:11;5.47;;;3.53;;
56770;SDS011;42641;59.794;17.616;2023-12-22T09:34:38;5.60;;;3.30;;
56770;SDS011;42641;59.794;17.616;2023-12-22T09:37:06;5.80;;;3.07;;
56770;SDS011;42641;59.794;17.616;2023-12-22T09:39:32;4.93;;;3.30;;
56770;SDS011;42641;59.794;17.616;2023-12-22T09:41:58;4.90;;;3.10;;
56770;SDS011;42641;59.794;17.616;2023-12-22T09:44:28;5.63;;;3.37;;
56770;SDS011;42641;59.794;17.616;2023-12-22T09:46:59;4.23;;;3.20;;
56770;SDS011;42641;59.794;17.616;2023-12-22T09:49:33;4.57;;;3.40;;
56770;SDS011;42641;59.794;17.616;2023-12-22T09:52:01;6.03;;;3.50;;
56770;SDS011;42641;59.794;17.616;2023-12-22T09:54:30;6.27;;;3.47;;
56770;SDS011;42641;59.794;17.616;2023-12-22T09:56:58;4.40;;;3.30;;
56770;SDS011;42641;59.794;17.616;2023-12-22T09:59:26;6.07;;;3.33;;
56770;SDS011;42641;59.794;17.616;2023-12-22T10:01:54;4.87;;;3.27;;
56770;SDS011;42641;59.794;17.616;2023-12-22T10:04:21;4.60;;;3.20;;
56770;SDS011;42641;59.794;17.616;2023-12-22T10:06:47;6.13;;;3.63;;
56770;SDS011;42641;59.794;17.616;2023-12-22T10:09:15;5.73;;;3.53;;
56770;SDS011;42641;59.794;17.616;2023-12-22T10:11:43;3.67;;;2.83;;
56770;SDS011;42641;59.794;17.616;2023-12-22T10:14:10;5.63;;;3.20;;
56770;SDS011;42641;59.794;17.616;2023-12-22T10:16:37;5.37;;;3.53;;
56770;SDS011;42641;59.794;17.616;2023-12-22T10:19:04;6.40;;;3.73;;
56770;SDS011;42641;59.794;17.616;2023-12-22T10:21:32;6.70;;;3.60;;
56770;SDS011;42641;59.794;17.616;2023-12-22T10:23:59;6.13;;;3.60;;
56770;SDS011;42641;59.794;17.616;2023-12-22T10:26:25;7.47;;;4.10;;
56770;SDS011;42641;59.794;17.616;2023-12-22T10:28:52;5.23;;;3.40;;
56770;SDS011;42641;59.794;17.616;2023-12-22T10:31:18;5.17;;;3.40;;
56770;SDS011;42641;59.794;17.616;2023-12-22T10:33:45;5.93;;;3.50;;
56770;SDS011;42641;59.794;17.616;2023-12-22T10:36:11;6.43;;;3.30;;
56770;SDS011;42641;59.794;17.616;2023-12-22T10:38:38;6.20;;;3.93;;
56770;SDS011;42641;59.794;17.616;2023-12-22T10:41:05;6.87;;;3.47;;
56770;SDS011;42641;59.794;17.616;2023-12-22T10:43:40;5.07;;;3.20;;
56770;SDS011;42641;59.794;17.616;2023-12-22T10:46:07;6.60;;;3.67;;
56770;SDS011;42641;59.794;17.616;2023-12-22T10:48:34;6.10;;;3.60;;
56770;SDS011;42641;59.794;17.616;2023-12-22T10:51:00;4.67;;;3.27;;
56770;SDS011;42641;59.794;17.616;2023-12-22T10:53:27;7.20;;;3.93;;
56770;SDS011;42641;59.794;17.616;2023-12-22T10:55:54;5.20;;;3.40;;
56770;SDS011;42641;59.794;17.616;2023-12-22T10:58:22;6.73;;;3.47;;
56770;SDS011;42641;59.794;17.616;2023-12-22T11:00:48;6.03;;;3.57;;
56770;SDS011;42641;59.794;17.616;2023-12-22T11:03:17;7.57;;;3.70;;
56770;SDS011;42641;59.794;17.616;2023-12-22T11:05:49;5.07;;;3.30;;
56770;SDS011;42641;59.794;17.616;2023-12-22T11:08:20;5.50;;;3.33;;
56770;SDS011;42641;59.794;17.616;2023-12-22T11:10:50;6.03;;;3.67;;
56770;SDS011;42641;59.794;17.616;2023-12-22T11:13:21;6.60;;;3.60;;
56770;SDS011;42641;59.794;17.616;2023-12-22T11:15:49;6.83;;;3.60;;
56770;SDS011;42641;59.794;17.616;2023-12-22T11:18:17;7.33;;;4.03;;
56770;SDS011;42641;59.794;17.616;2023-12-22T11:20:45;6.40;;;3.70;;
56770;SDS011;42641;59.794;17.616;2023-12-22T11:23:14;6.93;;;3.53;;
56770;SDS011;42641;59.794;17.616;2023-12-22T11:25:42;6.87;;;3.70;;
56770;SDS011;42641;59.794;17.616;2023-12-22T11:28:10;6.37;;;3.60;;
56770;SDS011;42641;59.794;17.616;2023-12-22T11:30:39;8.10;;;4.70;;
56770;SDS011;42641;59.794;17.616;2023-12-22T11:33:06;7.63;;;4.33;;
56770;SDS011;42641;59.794;17.616;2023-12-22T11:35:32;8.90;;;4.33;;
56770;SDS011;42641;59.794;17.616;2023-12-22T11:38:00;8.20;;;4.70;;
56770;SDS011;42641;59.794;17.616;2023-12-22T11:40:28;6.87;;;3.77;;
56770;SDS011;42641;59.794;17.616;2023-12-22T11:42:55;7.50;;;4.13;;
56770;SDS011;42641;59.794;17.616;2023-12-22T11:45:23;7.23;;;3.97;;
56770;SDS011;42641;59.794;17.616;2023-12-22T11:47:50;7.50;;;4.33;;
56770;SDS011;42641;59.794;17.616;2023-12-22T11:50:29;7.33;;;4.13;;
56770;SDS011;42641;59.794;17.616;2023-12-22T11:52:55;7.63;;;4.37;;
56770;SDS011;42641;59.794;17.616;2023-12-22T12:01:02;6.73;;;4.20;;
56770;SDS011;42641;59.794;17.616;2023-12-22T12:03:30;5.60;;;3.70;;
56770;SDS011;42641;59.794;17.616;2023-12-22T12:06:14;6.93;;;3.70;;
56770;SDS011;42641;59.794;17.616;2023-12-22T12:08:41;6.80;;;3.53;;
56770;SDS011;42641;59.794;17.616;2023-12-22T12:11:08;5.73;;;3.80;;
56770;SDS011;42641;59.794;17.616;2023-12-22T12:13:36;5.63;;;4.07;;
56770;SDS011;42641;59.794;17.616;2023-12-22T12:16:08;5.37;;;3.53;;
56770;SDS011;42641;59.794;17.616;2023-12-22T12:18:35;5.27;;;3.40;;
56770;SDS011;42641;59.794;17.616;2023-12-22T12:21:02;6.50;;;3.63;;
56770;SDS011;42641;59.794;17.616;2023-12-22T12:23:28;4.57;;;3.30;;
56770;SDS011;42641;59.794;17.616;2023-12-22T12:25:55;6.07;;;3.53;;
56770;SDS011;42641;59.794;17.616;2023-12-22T12:28:25;5.30;;;3.37;;
56770;SDS011;42641;59.794;17.616;2023-12-22T12:30:58;4.40;;;3.30;;
56770;SDS011;42641;59.794;17.616;2023-12-22T12:33:28;4.83;;;3.13;;
56770;SDS011;42641;59.794;17.616;2023-12-22T12:35:59;4.77;;;3.30;;
56770;SDS011;42641;59.794;17.616;2023-12-22T12:38:33;4.67;;;3.33;;
56770;SDS011;42641;59.794;17.616;2023-12-22T12:41:23;6.17;;;3.47;;
56770;SDS011;42641;59.794;17.616;2023-12-22T12:43:55;4.67;;;3.40;;
56770;SDS011;42641;59.794;17.616;2023-12-22T12:46:23;5.87;;;3.30;;
56770;SDS011;42641;59.794;17.616;2023-12-22T12:49:08;5.33;;;3.50;;
56770;SDS011;42641;59.794;17.616;2023-12-22T12:51:37;4.70;;;3.40;;
56770;SDS011;42641;59.794;17.616;2023-12-22T12:54:08;4.53;;;3.03;;
56770;SDS011;42641;59.794;17.616;2023-12-22T12:56:45;5.73;;;3.13;;
56770;SDS011;42641;59.794;17.616;2023-12-22T12:59:13;5.37;;;3.17;;
56770;SDS011;42641;59.794;17.616;2023-12-22T13:01:41;5.07;;;3.23;;
56770;SDS011;42641;59.794;17.616;2023-12-22T13:04:10;5.27;;;3.07;;
56770;SDS011;42641;59.794;17.616;2023-12-22T13:06:49;4.90;;;3.23;;
56770;SDS011;42641;59.794;17.616;2023-12-22T13:09:16;6.93;;;3.83;;
56770;SDS011;42641;59.794;17.616;2023-12-22T13:11:45;5.30;;;3.27;;
56770;SDS011;42641;59.794;17.616;2023-12-22T13:14:21;5.43;;;3.60;;
56770;SDS011;42641;59.794;17.616;2023-12-22T13:16:49;6.37;;;3.43;;
56770;SDS011;42641;59.794;17.616;2023-12-22T13:19:17;6.30;;;3.37;;
56770;SDS011;42641;59.794;17.616;2023-12-22T13:21:44;6.97;;;3.50;;
56770;SDS011;42641;59.794;17.616;2023-12-22T13:24:11;4.97;;;3.33;;
56770;SDS011;42641;59.794;17.616;2023-12-22T13:26:39;5.27;;;3.20;;
56770;SDS011;42641;59.794;17.616;2023-12-22T13:29:06;6.03;;;3.50;;
56770;SDS011;42641;59.794;17.616;2023-12-22T13:34:30;6.07;;;4.03;;
56770;SDS011;42641;59.794;17.616;2023-12-22T13:37:12;5.43;;;3.53;;
56770;SDS011;42641;59.794;17.616;2023-12-22T13:39:39;7.10;;;3.47;;
56770;SDS011;42641;59.794;17.616;2023-12-22T13:42:12;5.63;;;3.60;;
56770;SDS011;42641;59.794;17.616;2023-12-22T13:44:44;5.27;;;3.23;;
56770;SDS011;42641;59.794;17.616;2023-12-22T13:47:15;4.90;;;3.30;;
56770;SDS011;42641;59.794;17.616;2023-12-22T13:49:42;4.53;;;3.10;;
56770;SDS011;42641;59.794;17.616;2023-12-22T13:52:25;4.63;;;3.03;;
56770;SDS011;42641;59.794;17.616;2023-12-22T13:54:52;4.57;;;3.10;;
56770;SDS011;42641;59.794;17.616;2023-12-22T13:57:22;5.03;;;3.10;;
56770;SDS011;42641;59.794;17.616;2023-12-22T13:59:49;5.07;;;3.03;;
56770;SDS011;42641;59.794;17.616;2023-12-22T14:02:15;6.67;;;3.57;;
56770;SDS011;42641;59.794;17.616;2023-12-22T14:04:42;4.60;;;3.10;;
56770;SDS011;42641;59.794;17.616;2023-12-22T14:07:09;4.83;;;3.10;;
56770;SDS011;42641;59.794;17.616;2023-12-22T14:09:35;4.93;;;2.87;;
56770;SDS011;42641;59.794;17.616;2023-12-22T14:12:04;4.23;;;3.13;;
56770;SDS011;42641;59.794;17.616;2023-12-22T14:14:30;5.93;;;3.20;;
56770;SDS011;42641;59.794;17.616;2023-12-22T14:16:57;4.73;;;3.00;;
56770;SDS011;42641;59.794;17.616;2023-12-22T14:19:23;4.37;;;3.00;;
56770;SDS011;42641;59.794;17.616;2023-12-22T14:21:50;6.20;;;3.47;;
56770;SDS011;42641;59.794;17.616;2023-12-22T14:24:17;5.17;;;3.33;;
56770;SDS011;42641;59.794;17.616;2023-12-22T14:26:54;4.43;;;3.20;;
56770;SDS011;42641;59.794;17.616;2023-12-22T14:29:22;4.00;;;2.70;;
56770;SDS011;42641;59.794;17.616;2023-12-22T14:31:49;6.37;;;3.77;;
56770;SDS011;42641;59.794;17.616;2023-12-22T14:34:17;5.70;;;3.37;;
56770;SDS011;42641;59.794;17.616;2023-12-22T14:36:44;5.27;;;2.93;;
56770;SDS011;42641;59.794;17.616;2023-12-22T14:39:11;4.70;;;2.93;;
56770;SDS011;42641;59.794;17.616;2023-12-22T14:41:42;3.67;;;2.73;;
56770;SDS011;42641;59.794;17.616;2023-12-22T14:44:08;4.27;;;2.70;;